createdAt,value
2019-05-10T00:00:39.970Z,90.00
2019-05-10T00:03:26.734Z,90.00
2019-05-10T00:06:13.429Z,90.00
2019-05-10T00:08:47.472Z,90.10
2019-05-10T00:11:20.405Z,90.10
2019-05-10T00:13:53.476Z,90.00
2019-05-10T00:16:22.259Z,89.90
2019-05-10T00:18:50.862Z,89.80
2019-05-10T00:21:19.440Z,89.70
2019-05-10T00:23:48.061Z,89.40
2019-05-10T00:26:16.801Z,89.40
2019-05-10T00:28:45.486Z,89.40
2019-05-10T00:31:14.238Z,89.30
2019-05-10T00:33:42.801Z,89.20
2019-05-10T00:36:11.419Z,89.30
2019-05-10T00:38:40.139Z,89.30
2019-05-10T00:41:08.786Z,89.20
2019-05-10T00:43:37.428Z,89.20
2019-05-10T00:46:06.122Z,89.30
2019-05-10T00:48:34.809Z,89.10
2019-05-10T00:51:03.513Z,89.10
2019-05-10T00:53:32.181Z,89.10
2019-05-10T00:56:00.792Z,89.90
2019-05-10T00:58:29.478Z,89.20
2019-05-10T01:00:58.166Z,89.10
2019-05-10T01:03:26.851Z,89.10
2019-05-10T01:05:55.506Z,89.20
2019-05-10T01:08:24.147Z,89.20
2019-05-10T01:10:52.834Z,89.20
2019-05-10T01:13:21.524Z,89.40
2019-05-10T01:15:50.209Z,89.40
2019-05-10T01:18:18.899Z,89.30
2019-05-10T01:20:47.580Z,89.20
2019-05-10T01:23:16.269Z,89.30
2019-05-10T01:25:44.954Z,89.20
2019-05-10T01:28:13.562Z,89.20
2019-05-10T01:30:42.173Z,89.10
2019-05-10T01:33:10.887Z,89.30
2019-05-10T01:35:39.545Z,89.30
2019-05-10T01:38:08.234Z,89.20
2019-05-10T01:40:36.919Z,89.10
2019-05-10T01:43:05.760Z,89.00
2019-05-10T01:45:34.447Z,89.10
2019-05-10T01:48:03.210Z,89.00
2019-05-10T01:50:34.521Z,88.90
2019-05-10T01:53:03.104Z,88.70
2019-05-10T01:55:31.716Z,88.50
2019-05-10T01:58:00.318Z,88.40
2019-05-10T02:00:28.971Z,88.30
2019-05-10T02:02:57.672Z,88.50
2019-05-10T02:05:26.287Z,89.10
2019-05-10T02:07:54.892Z,88.30
2019-05-10T02:10:23.506Z,88.30
2019-05-10T02:12:52.129Z,88.30
2019-05-10T02:15:20.729Z,88.20
2019-05-10T02:17:49.331Z,88.20
2019-05-10T02:20:17.937Z,88.30
2019-05-10T02:22:46.553Z,88.20
2019-05-10T02:25:15.185Z,88.30
2019-05-10T02:27:43.792Z,88.10
2019-05-10T02:30:12.386Z,88.10
2019-05-10T02:32:40.990Z,88.10
2019-05-10T02:35:09.663Z,88.20
2019-05-10T02:37:38.237Z,88.20
2019-05-10T02:40:06.933Z,88.20
2019-05-10T02:42:35.544Z,88.20
2019-05-10T02:45:07.381Z,88.10
2019-05-10T02:47:36.008Z,88.20
2019-05-10T02:50:07.598Z,88.20
2019-05-10T02:52:36.285Z,87.60
2019-05-10T02:55:07.233Z,88.30
2019-05-10T02:57:36.799Z,88.50
2019-05-10T03:00:06.061Z,88.30
2019-05-10T03:02:35.413Z,88.40
2019-05-10T03:05:04.897Z,88.40
2019-05-10T03:07:35.169Z,88.40
2019-05-10T03:10:15.861Z,88.50
2019-05-10T03:12:44.587Z,88.40
2019-05-10T03:15:14.110Z,88.40
2019-05-10T03:17:42.852Z,88.40
2019-05-10T03:20:11.733Z,88.50
2019-05-10T03:22:43.566Z,88.70
2019-05-10T03:25:13.558Z,88.60
2019-05-10T03:27:42.263Z,88.70
2019-05-10T03:30:10.895Z,88.80
2019-05-10T03:32:39.559Z,88.90
2019-05-10T03:35:08.342Z,88.90
2019-05-10T03:37:37.076Z,88.90
2019-05-10T03:40:06.611Z,89.00
2019-05-10T03:42:36.186Z,89.00
2019-05-10T03:45:06.598Z,88.90
2019-05-10T03:47:35.264Z,88.90
2019-05-10T03:50:05.485Z,88.80
2019-05-10T03:52:34.089Z,88.80
2019-05-10T03:55:04.361Z,89.00
2019-05-10T03:57:32.968Z,89.20
2019-05-10T04:00:01.575Z,89.30
2019-05-10T04:02:30.261Z,89.40
2019-05-10T04:04:58.909Z,89.50
2019-05-10T04:07:27.520Z,89.60
2019-05-10T04:09:57.203Z,89.60
2019-05-10T04:12:25.849Z,89.60
2019-05-10T04:14:54.461Z,89.50
2019-05-10T04:17:23.073Z,89.60
2019-05-10T04:19:51.693Z,89.70
2019-05-10T04:22:20.341Z,89.70
2019-05-10T04:24:48.949Z,89.80
2019-05-10T04:27:31.637Z,89.90
2019-05-10T04:29:47.784Z,89.90
2019-05-10T04:32:16.522Z,90.30
2019-05-10T04:34:45.300Z,90.00
2019-05-10T04:37:13.953Z,90.00
2019-05-10T04:39:42.671Z,90.10
2019-05-10T04:42:11.361Z,90.20
2019-05-10T04:44:39.954Z,90.20
2019-05-10T04:47:08.589Z,90.20
2019-05-10T04:49:38.276Z,90.30
2019-05-10T04:52:06.896Z,90.40
2019-05-10T04:54:35.496Z,90.50
2019-05-10T04:57:04.171Z,90.60
2019-05-10T04:59:32.817Z,90.60
2019-05-10T05:02:01.487Z,90.70
2019-05-10T05:04:30.108Z,90.80
2019-05-10T05:06:58.722Z,90.80
2019-05-10T05:09:27.334Z,90.90
2019-05-10T05:11:55.970Z,90.90
2019-05-10T05:14:24.589Z,90.90
2019-05-10T05:16:53.312Z,91.00
2019-05-10T05:19:21.952Z,91.00
2019-05-10T05:21:50.562Z,91.00
2019-05-10T05:24:22.881Z,91.00
2019-05-10T05:26:50.474Z,90.90
2019-05-10T05:29:19.153Z,90.90
2019-05-10T05:31:47.737Z,91.00
2019-05-10T05:34:16.381Z,91.00
2019-05-10T05:36:45.074Z,91.10
2019-05-10T05:39:13.692Z,91.10
2019-05-10T05:41:49.121Z,91.10
2019-05-10T05:44:12.516Z,91.10
2019-05-10T05:46:42.307Z,91.40
2019-05-10T05:49:11.039Z,91.10
2019-05-10T05:51:39.656Z,91.10
2019-05-10T05:54:08.309Z,90.90
2019-05-10T05:56:36.972Z,90.90
2019-05-10T05:59:08.601Z,91.00
2019-05-10T06:01:36.022Z,91.10
2019-05-10T06:04:06.220Z,91.10
2019-05-10T06:06:34.885Z,91.00
2019-05-10T06:09:05.718Z,91.00
2019-05-10T06:11:35.993Z,91.00
2019-05-10T06:14:10.764Z,91.20
2019-05-10T06:16:35.253Z,91.20
2019-05-10T06:19:03.866Z,91.20
2019-05-10T06:21:32.481Z,91.30
2019-05-10T06:24:01.089Z,91.50
2019-05-10T06:26:29.696Z,91.50
2019-05-10T06:29:03.817Z,91.60
2019-05-10T06:31:28.728Z,91.60
2019-05-10T06:33:57.336Z,91.40
2019-05-10T06:36:25.953Z,91.40
2019-05-10T06:38:54.558Z,91.50
2019-05-10T06:41:23.165Z,91.50
2019-05-10T06:43:53.098Z,91.50
2019-05-10T06:46:23.613Z,91.50
2019-05-10T06:48:52.260Z,91.40
2019-05-10T06:51:20.874Z,91.40
2019-05-10T06:53:53.583Z,91.30
2019-05-10T06:56:19.786Z,91.20
2019-05-10T06:58:48.434Z,91.20
2019-05-10T07:01:17.044Z,91.30
2019-05-10T07:03:45.728Z,91.30
2019-05-10T07:06:14.343Z,91.20
2019-05-10T07:08:45.608Z,91.10
2019-05-10T07:11:13.161Z,91.10
2019-05-10T07:13:47.142Z,91.00
2019-05-10T07:16:14.929Z,91.00
2019-05-10T07:18:43.324Z,90.30
2019-05-10T07:21:11.940Z,89.80
2019-05-10T07:23:45.161Z,89.50
2019-05-10T07:26:10.797Z,89.00
2019-05-10T07:28:39.420Z,89.10
2019-05-10T07:31:08.023Z,87.30
2019-05-10T07:33:37.220Z,86.70
2019-05-10T07:36:14.494Z,86.90
2019-05-10T07:38:37.245Z,85.90
2019-05-10T07:41:05.861Z,85.30
2019-05-10T07:43:34.479Z,84.30
2019-05-10T07:46:06.164Z,83.90
2019-05-10T07:48:33.305Z,83.20
2019-05-10T07:51:01.932Z,82.60
2019-05-10T07:53:30.556Z,82.50
2019-05-10T07:56:00.063Z,82.20
2019-05-10T07:58:29.369Z,82.40
2019-05-10T08:00:57.990Z,82.10
2019-05-10T08:03:29.651Z,81.70
2019-05-10T08:06:01.792Z,81.50
2019-05-10T08:08:29.664Z,81.50
2019-05-10T08:10:59.331Z,81.30
2019-05-10T08:13:28.561Z,81.30
2019-05-10T08:15:59.327Z,81.00
2019-05-10T08:18:29.313Z,80.30
2019-05-10T08:21:02.181Z,79.80
2019-05-10T08:23:28.155Z,80.00
2019-05-10T08:25:56.916Z,80.30
2019-05-10T08:28:27.937Z,79.80
2019-05-10T08:30:58.786Z,80.00
2019-05-10T08:33:26.103Z,80.10
2019-05-10T08:36:00.456Z,80.30
2019-05-10T08:38:24.981Z,80.30
2019-05-10T08:40:53.597Z,80.20
2019-05-10T08:43:24.592Z,80.40
2019-05-10T08:45:52.602Z,80.40
2019-05-10T08:48:23.311Z,80.20
2019-05-10T08:50:57.033Z,79.90
2019-05-10T08:53:23.099Z,80.00
2019-05-10T08:55:52.620Z,80.30
2019-05-10T08:58:31.134Z,80.70
2019-05-10T09:01:10.211Z,80.20
2019-05-10T09:03:22.749Z,80.00
2019-05-10T09:05:52.475Z,80.40
2019-05-10T09:08:27.319Z,80.50
2019-05-10T09:10:53.078Z,80.20
2019-05-10T09:13:22.903Z,80.00
2019-05-10T09:15:56.140Z,80.10
2019-05-10T09:18:22.925Z,80.10
2019-05-10T09:20:54.152Z,80.20
2019-05-10T09:23:22.824Z,80.00
2019-05-10T09:25:52.624Z,80.20
2019-05-10T09:28:22.313Z,79.70
2019-05-10T09:30:59.409Z,79.50
2019-05-10T09:33:22.475Z,79.30
2019-05-10T09:35:54.666Z,78.80
2019-05-10T09:38:22.163Z,78.80
2019-05-10T09:40:55.969Z,78.30
2019-05-10T09:43:24.041Z,78.30
2019-05-10T09:45:53.106Z,77.90
2019-05-10T09:48:22.811Z,78.70
2019-05-10T09:50:55.110Z,77.70
2019-05-10T09:53:26.245Z,77.10
2019-05-10T09:56:00.163Z,76.80
2019-05-10T09:58:48.561Z,76.80
2019-05-10T10:01:20.711Z,76.50
2019-05-10T10:03:47.789Z,77.00
2019-05-10T10:06:16.490Z,77.10
2019-05-10T10:08:51.206Z,77.00
2019-05-10T10:11:18.171Z,77.10
2019-05-10T10:13:50.164Z,77.60
2019-05-10T10:16:16.011Z,77.30
2019-05-10T10:18:47.513Z,76.70
2019-05-10T10:21:18.819Z,76.70
2019-05-10T10:23:45.209Z,76.60
2019-05-10T10:26:20.387Z,76.30
2019-05-10T10:28:44.090Z,76.60
2019-05-10T10:31:26.246Z,76.70
2019-05-10T10:33:43.389Z,77.20
2019-05-10T10:36:13.217Z,76.60
2019-05-10T10:38:45.340Z,76.30
2019-05-10T10:41:17.064Z,76.30
2019-05-10T10:43:42.465Z,75.30
2019-05-10T10:46:12.516Z,73.80
2019-05-10T10:48:43.507Z,73.00
2019-05-10T10:51:11.665Z,73.10
2019-05-10T10:53:40.277Z,73.10
2019-05-10T10:56:08.858Z,72.90
2019-05-10T10:58:37.466Z,71.60
2019-05-10T11:01:10.612Z,70.50
2019-05-10T11:03:38.219Z,71.00
2019-05-10T11:06:06.840Z,70.40
2019-05-10T11:08:35.429Z,69.90
2019-05-10T11:11:04.123Z,69.40
2019-05-10T11:13:57.385Z,69.60
2019-05-10T11:16:09.590Z,69.60
2019-05-10T11:18:33.271Z,70.10
2019-05-10T11:21:02.150Z,70.00
2019-05-10T11:23:38.720Z,70.00
2019-05-10T11:26:02.259Z,69.90
2019-05-10T11:28:38.558Z,69.90
2019-05-10T11:31:01.452Z,70.90
2019-05-10T11:33:33.390Z,71.50
2019-05-10T11:36:04.083Z,71.20
2019-05-10T11:38:31.863Z,71.60
2019-05-10T11:41:01.965Z,70.80
2019-05-10T11:43:31.336Z,71.30
2019-05-10T11:46:00.201Z,71.20
2019-05-10T11:48:36.932Z,71.00
2019-05-10T11:50:59.017Z,71.30
2019-05-10T11:53:27.648Z,71.60
2019-05-10T11:55:56.253Z,72.10
2019-05-10T11:58:24.874Z,72.10
2019-05-10T12:00:59.274Z,72.00
2019-05-10T12:03:23.741Z,72.20
2019-05-10T12:06:04.564Z,72.00
2019-05-10T12:08:22.544Z,73.00
2019-05-10T12:10:53.791Z,73.50
2019-05-10T12:13:24.915Z,72.60
2019-05-10T12:15:52.240Z,72.70
2019-05-10T12:18:26.881Z,72.80
2019-05-10T12:21:08.029Z,73.40
2019-05-10T12:23:29.675Z,73.30
2019-05-10T12:26:59.208Z,73.30
2019-05-10T12:28:28.539Z,73.50
2019-05-10T12:30:53.108Z,71.90
2019-05-10T12:33:27.515Z,71.70
2019-05-10T12:35:52.937Z,70.70
2019-05-10T12:38:23.712Z,68.20
2019-05-10T12:40:51.774Z,67.10
2019-05-10T12:43:21.070Z,65.70
2019-05-10T12:45:51.756Z,65.10
2019-05-10T12:48:23.194Z,64.50
2019-05-10T12:50:54.470Z,64.70
2019-05-10T12:53:21.465Z,63.60
2019-05-10T12:55:50.317Z,63.50
2019-05-10T12:58:18.994Z,61.80
2019-05-10T13:00:52.741Z,60.40
2019-05-10T13:03:19.368Z,60.30
2019-05-10T13:05:52.546Z,60.60
2019-05-10T13:08:18.282Z,60.60
2019-05-10T13:10:49.777Z,60.00
2019-05-10T13:13:17.455Z,59.60
2019-05-10T13:15:47.323Z,60.00
2019-05-10T13:18:15.947Z,59.40
2019-05-10T13:20:44.541Z,59.40
2019-05-10T13:23:16.114Z,60.00
2019-05-10T13:25:43.417Z,60.00
2019-05-10T13:28:12.042Z,59.90
2019-05-10T13:30:40.610Z,60.40
2019-05-10T13:33:09.228Z,60.10
2019-05-10T13:35:37.922Z,59.40
2019-05-10T13:38:06.669Z,59.30
2019-05-10T13:40:38.938Z,58.60
2019-05-10T13:43:27.106Z,57.90
2019-05-10T13:45:55.181Z,57.60
2019-05-10T13:48:26.981Z,58.20
2019-05-10T13:50:55.774Z,58.20
2019-05-10T13:53:24.449Z,57.80
2019-05-10T13:55:53.092Z,58.10
2019-05-10T13:58:21.824Z,58.40
2019-05-10T14:00:50.433Z,58.80
2019-05-10T14:03:19.033Z,58.50
2019-05-10T14:05:47.649Z,59.50
2019-05-10T14:08:16.261Z,59.40
2019-05-10T14:10:44.851Z,59.50
2019-05-10T14:13:16.642Z,60.00
2019-05-10T14:15:43.684Z,61.10
2019-05-10T14:18:12.366Z,61.90
2019-05-10T14:20:40.972Z,62.20
2019-05-10T14:23:09.559Z,62.90
2019-05-10T14:25:38.951Z,63.50
2019-05-10T14:28:09.510Z,64.40
2019-05-10T14:30:38.007Z,65.20
2019-05-10T14:33:08.648Z,66.00
2019-05-10T14:35:37.840Z,66.40
2019-05-10T14:38:08.709Z,65.60
2019-05-10T14:40:36.674Z,64.20
2019-05-10T14:43:05.298Z,63.50
2019-05-10T14:45:34.219Z,62.80
2019-05-10T14:48:02.954Z,62.80
2019-05-10T14:50:31.574Z,63.60
2019-05-10T14:53:00.304Z,62.80
2019-05-10T14:55:34.502Z,62.40
2019-05-10T14:58:00.256Z,62.90
2019-05-10T15:00:28.947Z,63.00
2019-05-10T15:03:02.089Z,63.10
2019-05-10T15:05:28.846Z,62.90
2019-05-10T15:07:57.460Z,63.30
2019-05-10T15:10:26.045Z,63.60
2019-05-10T15:12:54.654Z,63.80
2019-05-10T15:15:23.245Z,64.00
2019-05-10T15:17:55.061Z,64.60
2019-05-10T15:20:22.161Z,64.70
2019-05-10T15:22:50.776Z,65.30
2019-05-10T15:25:19.396Z,65.60
2019-05-10T15:27:47.978Z,66.20
2019-05-10T15:30:16.641Z,66.20
2019-05-10T15:32:45.208Z,66.70
2019-05-10T15:35:13.825Z,66.60
2019-05-10T15:37:46.485Z,66.50
2019-05-10T15:40:12.689Z,66.40
2019-05-10T15:42:41.300Z,66.40
2019-05-10T15:45:14.657Z,66.40
2019-05-10T15:47:50.665Z,66.60
2019-05-10T15:50:10.595Z,66.30
2019-05-10T15:52:46.647Z,66.30
2019-05-10T15:55:10.024Z,66.50
2019-05-10T15:57:38.609Z,66.60
2019-05-10T16:00:07.365Z,66.60
2019-05-10T16:02:36.045Z,66.40
2019-05-10T16:05:23.279Z,66.70
2019-05-10T16:07:38.200Z,65.50
2019-05-10T16:10:06.890Z,65.10
2019-05-10T16:12:37.803Z,63.90
2019-05-10T16:15:07.383Z,63.20
2019-05-10T16:17:36.007Z,63.00
2019-05-10T16:20:06.030Z,62.40
2019-05-10T16:22:34.645Z,61.00
2019-05-10T16:25:05.050Z,60.80
2019-05-10T16:27:33.909Z,61.20
2019-05-10T16:30:05.136Z,61.20
2019-05-10T16:32:34.646Z,60.40
2019-05-10T16:35:05.593Z,60.20
2019-05-10T16:37:34.560Z,60.40
2019-05-10T16:40:04.059Z,60.30
2019-05-10T16:42:34.444Z,60.00
2019-05-10T16:45:02.884Z,59.70
2019-05-10T16:47:31.580Z,59.50
2019-05-10T16:50:00.180Z,59.50
2019-05-10T16:52:28.883Z,59.30
2019-05-10T16:55:03.477Z,59.10
2019-05-10T16:57:31.899Z,59.30
2019-05-10T17:00:01.991Z,59.40
2019-05-10T17:02:29.331Z,59.50
2019-05-10T17:04:57.962Z,59.50
2019-05-10T17:07:26.573Z,59.60
2019-05-10T17:09:56.273Z,59.40
2019-05-10T17:12:27.734Z,59.60
2019-05-10T17:14:56.301Z,59.80
2019-05-10T17:17:25.449Z,59.50
2019-05-10T17:19:54.075Z,59.60
2019-05-10T17:22:22.670Z,59.80
2019-05-10T17:24:51.358Z,59.80
2019-05-10T17:27:19.997Z,60.00
2019-05-10T17:29:49.771Z,60.30
2019-05-10T17:32:24.722Z,60.50
2019-05-10T17:34:49.709Z,60.60
2019-05-10T17:37:18.565Z,61.00
2019-05-10T17:39:47.303Z,61.60
2019-05-10T17:42:16.009Z,61.60
2019-05-10T17:44:44.690Z,62.00
2019-05-10T17:47:13.544Z,62.90
2019-05-10T17:49:42.198Z,63.10
2019-05-10T17:52:11.088Z,63.80
2019-05-10T17:54:40.981Z,64.00
2019-05-10T17:57:10.850Z,64.20
2019-05-10T17:59:40.151Z,64.50
2019-05-10T18:02:28.380Z,64.90
2019-05-10T18:04:59.675Z,65.60
2019-05-10T18:07:27.224Z,66.00
2019-05-10T18:09:55.912Z,66.10
2019-05-10T18:12:27.105Z,66.00
2019-05-10T18:14:55.776Z,66.10
2019-05-10T18:17:26.248Z,67.00
2019-05-10T18:19:56.662Z,67.90
2019-05-10T18:22:26.353Z,68.50
2019-05-10T18:24:55.022Z,69.10
2019-05-10T18:27:23.750Z,69.70
2019-05-10T18:29:52.696Z,70.20
2019-05-10T18:32:21.271Z,70.60
2019-05-10T18:34:49.898Z,70.80
2019-05-10T18:37:21.647Z,70.90
2019-05-10T18:39:52.991Z,71.30
2019-05-10T18:42:25.265Z,71.80
2019-05-10T18:44:52.082Z,72.00
2019-05-10T18:47:20.113Z,72.10
2019-05-10T18:49:48.738Z,72.20
2019-05-10T18:52:17.480Z,72.60
2019-05-10T18:54:46.292Z,73.00
2019-05-10T18:57:18.958Z,73.40
2019-05-10T18:59:47.044Z,73.60
2019-05-10T19:02:17.692Z,73.90
2019-05-10T19:04:51.942Z,73.70
2019-05-10T19:07:17.145Z,74.10
2019-05-10T19:09:45.990Z,74.40
2019-05-10T19:12:18.745Z,74.70
2019-05-10T19:14:45.228Z,74.60
2019-05-10T19:17:14.117Z,74.60
2019-05-10T19:19:43.024Z,74.70
2019-05-10T19:22:11.633Z,74.90
2019-05-10T19:24:40.386Z,75.00
2019-05-10T19:27:09.442Z,75.10
2019-05-10T19:29:45.697Z,75.30
2019-05-10T19:32:11.432Z,75.60
2019-05-10T19:34:39.114Z,75.70
2019-05-10T19:37:07.987Z,75.90
2019-05-10T19:39:37.043Z,76.00
2019-05-10T19:42:06.695Z,76.40
2019-05-10T19:44:40.637Z,76.60
2019-05-10T19:47:05.626Z,76.90
2019-05-10T19:49:34.248Z,77.30
2019-05-10T19:52:02.865Z,77.60
2019-05-10T19:54:31.532Z,77.70
2019-05-10T19:57:00.161Z,78.00
2019-05-10T19:59:28.843Z,78.20
2019-05-10T20:01:57.429Z,78.30
2019-05-10T20:04:32.637Z,78.40
2019-05-10T20:07:02.176Z,78.60
2019-05-10T20:09:30.940Z,78.80
2019-05-10T20:11:59.577Z,79.00
2019-05-10T20:14:28.234Z,79.50
2019-05-10T20:16:56.962Z,79.20
2019-05-10T20:19:25.722Z,79.20
2019-05-10T20:22:06.620Z,79.40
2019-05-10T20:24:35.297Z,79.40
2019-05-10T20:27:03.909Z,79.60
2019-05-10T20:29:33.273Z,79.80
2019-05-10T20:32:02.112Z,79.80
2019-05-10T20:34:30.834Z,79.60
2019-05-10T20:36:59.442Z,79.70
2019-05-10T20:39:28.113Z,79.80
2019-05-10T20:41:56.766Z,80.00
2019-05-10T20:44:25.389Z,80.10
2019-05-10T20:46:53.971Z,80.30
2019-05-10T20:49:22.596Z,80.50
2019-05-10T20:51:51.212Z,80.60
2019-05-10T20:54:20.965Z,80.70
2019-05-10T20:56:49.579Z,81.00
2019-05-10T20:59:18.185Z,81.00
2019-05-10T21:01:46.769Z,81.30
2019-05-10T21:04:15.384Z,81.50
2019-05-10T21:06:43.988Z,81.70
2019-05-10T21:09:12.577Z,81.90
2019-05-10T21:11:41.207Z,81.90
2019-05-10T21:14:09.898Z,82.20
2019-05-10T21:16:38.561Z,82.30
2019-05-10T21:19:07.240Z,82.50
2019-05-10T21:21:35.860Z,82.60
2019-05-10T21:24:04.465Z,82.30
2019-05-10T21:26:33.080Z,82.10
2019-05-10T21:29:02.155Z,81.80
2019-05-10T21:31:30.988Z,81.70
2019-05-10T21:34:09.122Z,81.70
2019-05-10T21:36:29.965Z,81.70
2019-05-10T21:38:58.551Z,81.80
2019-05-10T21:41:27.164Z,82.00
2019-05-10T21:43:55.764Z,82.10
2019-05-10T21:46:24.356Z,82.90
2019-05-10T21:48:52.971Z,82.40
2019-05-10T21:51:21.579Z,82.50
2019-05-10T21:53:50.187Z,82.80
2019-05-10T21:56:18.799Z,83.10
2019-05-10T21:58:47.416Z,83.40
2019-05-10T22:01:16.024Z,83.60
2019-05-10T22:03:44.637Z,83.80
2019-05-10T22:06:14.325Z,83.90
2019-05-10T22:08:49.594Z,83.80
2019-05-10T22:11:14.251Z,83.70
2019-05-10T22:13:42.929Z,83.80
2019-05-10T22:16:11.541Z,83.80
2019-05-10T22:18:40.205Z,83.80
2019-05-10T22:21:08.812Z,84.00
2019-05-10T22:23:37.422Z,84.20
2019-05-10T22:26:06.035Z,84.40
2019-05-10T22:28:34.645Z,84.50
2019-05-10T22:31:03.255Z,84.70
2019-05-10T22:33:31.900Z,84.80
2019-05-10T22:36:00.484Z,85.00
2019-05-10T22:38:29.097Z,85.20
2019-05-10T22:40:57.685Z,85.10
2019-05-10T22:43:26.297Z,85.10
2019-05-10T22:45:54.913Z,85.20
2019-05-10T22:48:23.545Z,85.30
2019-05-10T22:50:52.154Z,85.40
2019-05-10T22:53:20.778Z,85.50
2019-05-10T22:55:49.384Z,86.40
2019-05-10T22:58:18.037Z,85.60
2019-05-10T23:00:46.688Z,85.70
2019-05-10T23:03:15.317Z,85.60
2019-05-10T23:05:44.017Z,85.40
2019-05-10T23:08:12.703Z,85.50
2019-05-10T23:10:41.385Z,85.30
2019-05-10T23:13:10.001Z,85.30
2019-05-10T23:15:38.624Z,85.20
2019-05-10T23:18:07.240Z,85.10
2019-05-10T23:20:35.856Z,85.00
2019-05-10T23:23:04.461Z,84.50
2019-05-10T23:25:33.077Z,84.90
2019-05-10T23:28:01.683Z,84.50
2019-05-10T23:30:30.302Z,84.00
2019-05-10T23:32:58.912Z,84.20
2019-05-10T23:35:27.541Z,84.10
2019-05-10T23:37:56.146Z,83.80
2019-05-10T23:40:24.754Z,83.30
2019-05-10T23:42:53.365Z,83.00
2019-05-10T23:45:21.966Z,82.70
2019-05-10T23:47:50.584Z,82.30
2019-05-10T23:50:19.209Z,82.10
2019-05-10T23:52:47.806Z,81.90
2019-05-10T23:55:16.418Z,81.70
2019-05-10T23:57:45.026Z,81.50
